sensor_id;sensor_type;location;lat;lon;timestamp;P1;durP1;ratioP1;P2;durP2;ratioP2
44706;SDS011;30433;45.596;8.408;2023-06-04T00:02:09;3.45;;;2.72;;
44706;SDS011;30433;45.596;8.408;2023-06-04T00:08:11;5.32;;;3.30;;
44706;SDS011;30433;45.596;8.408;2023-06-04T00:14:15;4.72;;;2.92;;
44706;SDS011;30433;45.596;8.408;2023-06-04T00:20:18;4.93;;;3.60;;
44706;SDS011;30433;45.596;8.408;2023-06-04T00:26:20;4.03;;;3.30;;
44706;SDS011;30433;45.596;8.408;2023-06-04T00:32:24;3.58;;;3.15;;
44706;SDS011;30433;45.596;8.408;2023-06-04T00:38:26;5.03;;;3.30;;
44706;SDS011;30433;45.596;8.408;2023-06-04T00:44:28;3.10;;;2.80;;
44706;SDS011;30433;45.596;8.408;2023-06-04T00:50:32;3.72;;;2.97;;
44706;SDS011;30433;45.596;8.408;2023-06-04T00:56:35;4.05;;;3.40;;
44706;SDS011;30433;45.596;8.408;2023-06-04T01:02:38;5.05;;;3.35;;
44706;SDS011;30433;45.596;8.408;2023-06-04T01:08:45;6.00;;;3.83;;
44706;SDS011;30433;45.596;8.408;2023-06-04T01:14:47;8.65;;;5.60;;
44706;SDS011;30433;45.596;8.408;2023-06-04T01:20:50;12.15;;;7.72;;
44706;SDS011;30433;45.596;8.408;2023-06-04T01:26:54;14.70;;;7.68;;
44706;SDS011;30433;45.596;8.408;2023-06-04T01:32:57;8.65;;;7.05;;
44706;SDS011;30433;45.596;8.408;2023-06-04T01:39:00;16.08;;;8.68;;
44706;SDS011;30433;45.596;8.408;2023-06-04T01:45:08;11.80;;;8.57;;
44706;SDS011;30433;45.596;8.408;2023-06-04T01:51:11;6.85;;;6.20;;
44706;SDS011;30433;45.596;8.408;2023-06-04T01:57:13;7.13;;;6.43;;
44706;SDS011;30433;45.596;8.408;2023-06-04T02:03:16;6.65;;;6.05;;
44706;SDS011;30433;45.596;8.408;2023-06-04T02:09:19;7.10;;;5.63;;
44706;SDS011;30433;45.596;8.408;2023-06-04T02:15:22;7.83;;;5.67;;
44706;SDS011;30433;45.596;8.408;2023-06-04T02:21:26;8.30;;;5.55;;
44706;SDS011;30433;45.596;8.408;2023-06-04T02:27:28;6.13;;;4.45;;
44706;SDS011;30433;45.596;8.408;2023-06-04T02:33:30;6.60;;;4.25;;
44706;SDS011;30433;45.596;8.408;2023-06-04T02:39:34;5.40;;;4.53;;
44706;SDS011;30433;45.596;8.408;2023-06-04T02:45:37;7.15;;;4.50;;
44706;SDS011;30433;45.596;8.408;2023-06-04T02:51:39;8.82;;;4.75;;
44706;SDS011;30433;45.596;8.408;2023-06-04T02:57:43;6.97;;;4.93;;
44706;SDS011;30433;45.596;8.408;2023-06-04T03:03:45;5.15;;;4.45;;
44706;SDS011;30433;45.596;8.408;2023-06-04T03:09:48;6.35;;;4.32;;
44706;SDS011;30433;45.596;8.408;2023-06-04T03:15:52;6.38;;;5.07;;
44706;SDS011;30433;45.596;8.408;2023-06-04T03:21:55;5.22;;;4.18;;
44706;SDS011;30433;45.596;8.408;2023-06-04T03:28:00;6.18;;;4.20;;
44706;SDS011;30433;45.596;8.408;2023-06-04T03:34:04;4.28;;;3.88;;
44706;SDS011;30433;45.596;8.408;2023-06-04T03:40:07;4.72;;;3.90;;
44706;SDS011;30433;45.596;8.408;2023-06-04T03:46:10;4.18;;;3.78;;
44706;SDS011;30433;45.596;8.408;2023-06-04T03:52:13;5.20;;;4.00;;
44706;SDS011;30433;45.596;8.408;2023-06-04T03:58:16;6.78;;;4.13;;
44706;SDS011;30433;45.596;8.408;2023-06-04T04:04:18;6.03;;;3.43;;
44706;SDS011;30433;45.596;8.408;2023-06-04T04:10:21;4.60;;;3.33;;
44706;SDS011;30433;45.596;8.408;2023-06-04T04:16:24;4.07;;;3.10;;
44706;SDS011;30433;45.596;8.408;2023-06-04T04:22:28;4.45;;;3.05;;
44706;SDS011;30433;45.596;8.408;2023-06-04T04:28:32;5.18;;;3.13;;
44706;SDS011;30433;45.596;8.408;2023-06-04T04:34:35;3.95;;;3.22;;
44706;SDS011;30433;45.596;8.408;2023-06-04T04:40:37;2.97;;;2.67;;
44706;SDS011;30433;45.596;8.408;2023-06-04T04:46:41;3.30;;;2.60;;
44706;SDS011;30433;45.596;8.408;2023-06-04T04:52:43;5.00;;;2.83;;
44706;SDS011;30433;45.596;8.408;2023-06-04T04:58:46;3.28;;;2.70;;
44706;SDS011;30433;45.596;8.408;2023-06-04T05:04:49;4.30;;;2.33;;
44706;SDS011;30433;45.596;8.408;2023-06-04T05:10:51;2.78;;;2.38;;
44706;SDS011;30433;45.596;8.408;2023-06-04T05:16:54;3.27;;;2.73;;
44706;SDS011;30433;45.596;8.408;2023-06-04T05:22:58;2.78;;;2.45;;
44706;SDS011;30433;45.596;8.408;2023-06-04T05:29:02;4.85;;;2.67;;
44706;SDS011;30433;45.596;8.408;2023-06-04T05:35:05;6.22;;;2.85;;
44706;SDS011;30433;45.596;8.408;2023-06-04T05:41:09;3.75;;;2.63;;
44706;SDS011;30433;45.596;8.408;2023-06-04T05:47:12;4.50;;;3.00;;
44706;SDS011;30433;45.596;8.408;2023-06-04T05:53:14;3.17;;;2.70;;
44706;SDS011;30433;45.596;8.408;2023-06-04T05:59:18;3.63;;;2.90;;
44706;SDS011;30433;45.596;8.408;2023-06-04T06:05:20;4.95;;;2.85;;
44706;SDS011;30433;45.596;8.408;2023-06-04T06:11:22;6.10;;;4.00;;
44706;SDS011;30433;45.596;8.408;2023-06-04T06:17:28;4.82;;;3.47;;
44706;SDS011;30433;45.596;8.408;2023-06-04T06:23:30;4.72;;;3.30;;
44706;SDS011;30433;45.596;8.408;2023-06-04T06:29:33;3.92;;;2.85;;
44706;SDS011;30433;45.596;8.408;2023-06-04T06:35:36;8.63;;;3.10;;
44706;SDS011;30433;45.596;8.408;2023-06-04T06:41:38;4.93;;;3.17;;
44706;SDS011;30433;45.596;8.408;2023-06-04T06:47:41;5.00;;;3.25;;
44706;SDS011;30433;45.596;8.408;2023-06-04T06:53:44;4.50;;;3.00;;
44706;SDS011;30433;45.596;8.408;2023-06-04T06:59:46;3.95;;;3.05;;
44706;SDS011;30433;45.596;8.408;2023-06-04T07:05:52;4.53;;;2.67;;
44706;SDS011;30433;45.596;8.408;2023-06-04T07:11:56;7.22;;;3.10;;
44706;SDS011;30433;45.596;8.408;2023-06-04T07:17:58;5.03;;;3.67;;
44706;SDS011;30433;45.596;8.408;2023-06-04T07:24:01;5.65;;;3.58;;
44706;SDS011;30433;45.596;8.408;2023-06-04T07:30:05;5.03;;;3.60;;
44706;SDS011;30433;45.596;8.408;2023-06-04T07:36:09;6.32;;;3.45;;
44706;SDS011;30433;45.596;8.408;2023-06-04T07:48:16;9.27;;;5.83;;
44706;SDS011;30433;45.596;8.408;2023-06-04T07:54:18;12.13;;;6.43;;
44706;SDS011;30433;45.596;8.408;2023-06-04T08:00:20;7.95;;;5.68;;
44706;SDS011;30433;45.596;8.408;2023-06-04T08:06:24;7.47;;;5.03;;
44706;SDS011;30433;45.596;8.408;2023-06-04T08:12:26;9.32;;;5.30;;
44706;SDS011;30433;45.596;8.408;2023-06-04T08:18:29;6.05;;;4.78;;
44706;SDS011;30433;45.596;8.408;2023-06-04T08:24:32;6.97;;;4.57;;
44706;SDS011;30433;45.596;8.408;2023-06-04T08:30:35;7.85;;;5.03;;
44706;SDS011;30433;45.596;8.408;2023-06-04T08:36:37;13.55;;;6.57;;
44706;SDS011;30433;45.596;8.408;2023-06-04T08:42:42;12.55;;;5.35;;
44706;SDS011;30433;45.596;8.408;2023-06-04T08:48:48;8.00;;;4.95;;
44706;SDS011;30433;45.596;8.408;2023-06-04T08:54:51;8.60;;;5.60;;
44706;SDS011;30433;45.596;8.408;2023-06-04T09:00:58;9.35;;;5.78;;
44706;SDS011;30433;45.596;8.408;2023-06-04T09:07:02;7.70;;;6.35;;
44706;SDS011;30433;45.596;8.408;2023-06-04T09:13:06;6.90;;;6.22;;
44706;SDS011;30433;45.596;8.408;2023-06-04T09:19:11;7.55;;;6.30;;
44706;SDS011;30433;45.596;8.408;2023-06-04T09:25:19;7.30;;;6.60;;
44706;SDS011;30433;45.596;8.408;2023-06-04T09:31:22;6.78;;;4.13;;
44706;SDS011;30433;45.596;8.408;2023-06-04T09:37:28;5.22;;;4.72;;
44706;SDS011;30433;45.596;8.408;2023-06-04T09:43:30;9.02;;;4.05;;
44706;SDS011;30433;45.596;8.408;2023-06-04T09:49:39;9.50;;;4.53;;
44706;SDS011;30433;45.596;8.408;2023-06-04T09:55:43;10.40;;;5.47;;
44706;SDS011;30433;45.596;8.408;2023-06-04T10:01:46;7.57;;;5.22;;
44706;SDS011;30433;45.596;8.408;2023-06-04T10:07:49;6.35;;;5.40;;
44706;SDS011;30433;45.596;8.408;2023-06-04T10:14:02;6.25;;;5.22;;
44706;SDS011;30433;45.596;8.408;2023-06-04T10:20:12;7.57;;;5.72;;
44706;SDS011;30433;45.596;8.408;2023-06-04T10:32:18;7.45;;;6.60;;
44706;SDS011;30433;45.596;8.408;2023-06-04T10:38:21;7.40;;;6.25;;
44706;SDS011;30433;45.596;8.408;2023-06-04T10:50:27;5.75;;;5.22;;
44706;SDS011;30433;45.596;8.408;2023-06-04T10:56:30;8.35;;;7.00;;
44706;SDS011;30433;45.596;8.408;2023-06-04T11:02:34;7.47;;;6.03;;
44706;SDS011;30433;45.596;8.408;2023-06-04T11:08:39;6.45;;;5.85;;
44706;SDS011;30433;45.596;8.408;2023-06-04T11:14:53;5.95;;;5.35;;
44706;SDS011;30433;45.596;8.408;2023-06-04T11:27:01;6.40;;;4.45;;
44706;SDS011;30433;45.596;8.408;2023-06-04T11:33:04;5.28;;;4.78;;
44706;SDS011;30433;45.596;8.408;2023-06-04T11:39:07;6.07;;;5.35;;
44706;SDS011;30433;45.596;8.408;2023-06-04T11:45:11;4.70;;;4.30;;
44706;SDS011;30433;45.596;8.408;2023-06-04T11:51:15;3.47;;;3.17;;
44706;SDS011;30433;45.596;8.408;2023-06-04T11:57:17;4.53;;;3.78;;
44706;SDS011;30433;45.596;8.408;2023-06-04T12:09:33;2.50;;;2.30;;
44706;SDS011;30433;45.596;8.408;2023-06-04T12:15:36;2.75;;;2.20;;
44706;SDS011;30433;45.596;8.408;2023-06-04T12:21:40;3.67;;;3.10;;
44706;SDS011;30433;45.596;8.408;2023-06-04T12:27:46;2.83;;;2.40;;
44706;SDS011;30433;45.596;8.408;2023-06-04T12:33:49;2.60;;;2.40;;
44706;SDS011;30433;45.596;8.408;2023-06-04T12:39:53;2.83;;;2.40;;
44706;SDS011;30433;45.596;8.408;2023-06-04T12:45:57;2.90;;;2.40;;
44706;SDS011;30433;45.596;8.408;2023-06-04T12:51:59;3.47;;;2.63;;
44706;SDS011;30433;45.596;8.408;2023-06-04T12:58:03;2.80;;;2.20;;
44706;SDS011;30433;45.596;8.408;2023-06-04T13:04:05;3.13;;;2.40;;
44706;SDS011;30433;45.596;8.408;2023-06-04T13:10:08;4.95;;;2.80;;
44706;SDS011;30433;45.596;8.408;2023-06-04T13:16:13;2.80;;;2.28;;
44706;SDS011;30433;45.596;8.408;2023-06-04T13:22:15;3.03;;;2.40;;
44706;SDS011;30433;45.596;8.408;2023-06-04T13:28:17;2.90;;;2.60;;
44706;SDS011;30433;45.596;8.408;2023-06-04T13:34:21;3.70;;;2.30;;
44706;SDS011;30433;45.596;8.408;2023-06-04T13:40:24;4.07;;;2.78;;
44706;SDS011;30433;45.596;8.408;2023-06-04T13:46:26;3.00;;;2.35;;
44706;SDS011;30433;45.596;8.408;2023-06-04T13:52:32;2.97;;;2.50;;
44706;SDS011;30433;45.596;8.408;2023-06-04T13:58:34;2.60;;;2.40;;
44706;SDS011;30433;45.596;8.408;2023-06-04T14:04:37;3.00;;;2.28;;
44706;SDS011;30433;45.596;8.408;2023-06-04T14:10:40;4.75;;;3.17;;
44706;SDS011;30433;45.596;8.408;2023-06-04T14:16:43;4.13;;;2.63;;
44706;SDS011;30433;45.596;8.408;2023-06-04T14:22:45;4.65;;;2.90;;
44706;SDS011;30433;45.596;8.408;2023-06-04T14:28:49;2.78;;;2.40;;
44706;SDS011;30433;45.596;8.408;2023-06-04T14:34:51;2.83;;;2.55;;
44706;SDS011;30433;45.596;8.408;2023-06-04T14:40:53;3.42;;;2.67;;
44706;SDS011;30433;45.596;8.408;2023-06-04T14:46:58;3.33;;;2.65;;
44706;SDS011;30433;45.596;8.408;2023-06-04T14:53:00;4.90;;;4.13;;
44706;SDS011;30433;45.596;8.408;2023-06-04T14:59:03;2.85;;;2.55;;
44706;SDS011;30433;45.596;8.408;2023-06-04T15:05:10;2.65;;;2.45;;
44706;SDS011;30433;45.596;8.408;2023-06-04T15:11:17;2.90;;;2.60;;
44706;SDS011;30433;45.596;8.408;2023-06-04T15:17:19;5.28;;;2.83;;
44706;SDS011;30433;45.596;8.408;2023-06-04T15:23:23;3.28;;;2.40;;
44706;SDS011;30433;45.596;8.408;2023-06-04T15:29:25;2.97;;;2.45;;
44706;SDS011;30433;45.596;8.408;2023-06-04T15:35:27;4.22;;;2.80;;
44706;SDS011;30433;45.596;8.408;2023-06-04T15:47:33;3.97;;;2.80;;
44706;SDS011;30433;45.596;8.408;2023-06-04T15:53:35;4.22;;;2.53;;
44706;SDS011;30433;45.596;8.408;2023-06-04T15:59:39;4.18;;;2.53;;
44706;SDS011;30433;45.596;8.408;2023-06-04T16:05:42;6.47;;;3.33;;
44706;SDS011;30433;45.596;8.408;2023-06-04T16:11:44;4.65;;;3.03;;
44706;SDS011;30433;45.596;8.408;2023-06-04T16:17:48;3.33;;;2.70;;
44706;SDS011;30433;45.596;8.408;2023-06-04T16:23:50;6.32;;;2.95;;
44706;SDS011;30433;45.596;8.408;2023-06-04T16:29:52;3.28;;;2.83;;
44706;SDS011;30433;45.596;8.408;2023-06-04T16:35:56;3.58;;;2.67;;
44706;SDS011;30433;45.596;8.408;2023-06-04T16:41:59;3.00;;;2.60;;
44706;SDS011;30433;45.596;8.408;2023-06-04T16:48:03;3.85;;;2.75;;
44706;SDS011;30433;45.596;8.408;2023-06-04T16:54:08;2.83;;;2.47;;
44706;SDS011;30433;45.596;8.408;2023-06-04T17:00:10;5.82;;;3.80;;
44706;SDS011;30433;45.596;8.408;2023-06-04T17:06:13;5.22;;;4.07;;
44706;SDS011;30433;45.596;8.408;2023-06-04T17:12:17;4.80;;;4.03;;
44706;SDS011;30433;45.596;8.408;2023-06-04T17:18:20;7.45;;;4.43;;
44706;SDS011;30433;45.596;8.408;2023-06-04T17:24:22;6.60;;;4.47;;
44706;SDS011;30433;45.596;8.408;2023-06-04T17:30:26;5.60;;;4.78;;
44706;SDS011;30433;45.596;8.408;2023-06-04T17:36:28;5.60;;;5.03;;
44706;SDS011;30433;45.596;8.408;2023-06-04T17:42:31;7.10;;;6.40;;
44706;SDS011;30433;45.596;8.408;2023-06-04T17:48:34;9.10;;;6.20;;
44706;SDS011;30433;45.596;8.408;2023-06-04T17:54:36;8.82;;;6.93;;
44706;SDS011;30433;45.596;8.408;2023-06-04T18:00:39;9.85;;;6.80;;
44706;SDS011;30433;45.596;8.408;2023-06-04T18:06:42;7.35;;;6.65;;
44706;SDS011;30433;45.596;8.408;2023-06-04T18:12:45;8.93;;;5.47;;
44706;SDS011;30433;45.596;8.408;2023-06-04T18:18:47;10.38;;;5.10;;
44706;SDS011;30433;45.596;8.408;2023-06-04T18:24:50;12.00;;;5.15;;
44706;SDS011;30433;45.596;8.408;2023-06-04T18:30:53;12.02;;;4.68;;
44706;SDS011;30433;45.596;8.408;2023-06-04T18:36:55;4.95;;;4.10;;
44706;SDS011;30433;45.596;8.408;2023-06-04T18:42:59;5.03;;;4.40;;
44706;SDS011;30433;45.596;8.408;2023-06-04T18:49:02;4.82;;;4.35;;
44706;SDS011;30433;45.596;8.408;2023-06-04T18:55:06;8.30;;;4.43;;
44706;SDS011;30433;45.596;8.408;2023-06-04T19:01:10;6.53;;;4.35;;
44706;SDS011;30433;45.596;8.408;2023-06-04T19:07:13;7.20;;;4.13;;
44706;SDS011;30433;45.596;8.408;2023-06-04T19:13:15;13.95;;;4.97;;
44706;SDS011;30433;45.596;8.408;2023-06-04T19:19:19;7.70;;;4.13;;
44706;SDS011;30433;45.596;8.408;2023-06-04T19:25:22;11.90;;;4.20;;
44706;SDS011;30433;45.596;8.408;2023-06-04T19:31:24;5.20;;;4.03;;
44706;SDS011;30433;45.596;8.408;2023-06-04T19:37:29;8.13;;;4.13;;
44706;SDS011;30433;45.596;8.408;2023-06-04T19:43:31;11.00;;;5.28;;
44706;SDS011;30433;45.596;8.408;2023-06-04T19:49:36;3.90;;;3.50;;
44706;SDS011;30433;45.596;8.408;2023-06-04T19:55:41;4.30;;;3.60;;
44706;SDS011;30433;45.596;8.408;2023-06-04T20:01:43;4.47;;;4.07;;
44706;SDS011;30433;45.596;8.408;2023-06-04T20:13:50;15.13;;;4.53;;
44706;SDS011;30433;45.596;8.408;2023-06-04T20:19:53;5.18;;;3.88;;
44706;SDS011;30433;45.596;8.408;2023-06-04T20:25:56;7.65;;;4.43;;
44706;SDS011;30433;45.596;8.408;2023-06-04T20:32:00;5.22;;;4.25;;
44706;SDS011;30433;45.596;8.408;2023-06-04T20:38:03;9.25;;;4.30;;
44706;SDS011;30433;45.596;8.408;2023-06-04T20:50:09;7.38;;;5.15;;
44706;SDS011;30433;45.596;8.408;2023-06-04T20:56:12;5.45;;;4.65;;
44706;SDS011;30433;45.596;8.408;2023-06-04T21:02:14;5.78;;;4.60;;
44706;SDS011;30433;45.596;8.408;2023-06-04T21:08:18;10.05;;;4.38;;
44706;SDS011;30433;45.596;8.408;2023-06-04T21:14:20;5.70;;;5.05;;
44706;SDS011;30433;45.596;8.408;2023-06-04T21:20:24;9.48;;;8.38;;
44706;SDS011;30433;45.596;8.408;2023-06-04T21:26:29;9.57;;;8.68;;
44706;SDS011;30433;45.596;8.408;2023-06-04T21:32:32;9.68;;;8.77;;
44706;SDS011;30433;45.596;8.408;2023-06-04T21:38:35;13.35;;;12.05;;
44706;SDS011;30433;45.596;8.408;2023-06-04T21:44:43;13.73;;;12.43;;
44706;SDS011;30433;45.596;8.408;2023-06-04T21:50:46;13.70;;;12.40;;
44706;SDS011;30433;45.596;8.408;2023-06-04T21:56:51;13.57;;;11.93;;
44706;SDS011;30433;45.596;8.408;2023-06-04T22:02:55;12.15;;;10.95;;
44706;SDS011;30433;45.596;8.408;2023-06-04T22:08:58;6.25;;;5.40;;
44706;SDS011;30433;45.596;8.408;2023-06-04T22:15:01;5.50;;;4.55;;
44706;SDS011;30433;45.596;8.408;2023-06-04T22:21:05;5.90;;;5.30;;
44706;SDS011;30433;45.596;8.408;2023-06-04T22:27:08;6.68;;;5.22;;
44706;SDS011;30433;45.596;8.408;2023-06-04T22:33:11;6.68;;;5.38;;
44706;SDS011;30433;45.596;8.408;2023-06-04T22:39:15;6.70;;;5.80;;
44706;SDS011;30433;45.596;8.408;2023-06-04T22:45:17;8.63;;;7.38;;
44706;SDS011;30433;45.596;8.408;2023-06-04T22:51:20;10.60;;;7.82;;
44706;SDS011;30433;45.596;8.408;2023-06-04T22:57:24;10.35;;;9.23;;
44706;SDS011;30433;45.596;8.408;2023-06-04T23:03:27;9.70;;;8.52;;
44706;SDS011;30433;45.596;8.408;2023-06-04T23:09:30;10.80;;;8.18;;
44706;SDS011;30433;45.596;8.408;2023-06-04T23:15:34;11.77;;;9.80;;
44706;SDS011;30433;45.596;8.408;2023-06-04T23:21:36;10.20;;;9.05;;
44706;SDS011;30433;45.596;8.408;2023-06-04T23:27:38;10.60;;;9.43;;
44706;SDS011;30433;45.596;8.408;2023-06-04T23:33:42;10.00;;;8.77;;
44706;SDS011;30433;45.596;8.408;2023-06-04T23:39:44;12.45;;;8.93;;
44706;SDS011;30433;45.596;8.408;2023-06-04T23:45:46;14.07;;;9.63;;
44706;SDS011;30433;45.596;8.408;2023-06-04T23:51:50;12.30;;;9.70;;
44706;SDS011;30433;45.596;8.408;2023-06-04T23:57:52;12.48;;;9.05;;
